sensor_id;sensor_type;location;lat;lon;timestamp;temperature;humidity
19586;DHT22;9939;49.246;9.106;2022-09-21T00:03:58;7.00;99.90
19586;DHT22;9939;49.246;9.106;2022-09-21T00:06:27;6.90;99.90
19586;DHT22;9939;49.246;9.106;2022-09-21T00:08:56;7.10;99.90
19586;DHT22;9939;49.246;9.106;2022-09-21T00:11:26;6.90;99.90
19586;DHT22;9939;49.246;9.106;2022-09-21T00:13:55;6.90;99.90
19586;DHT22;9939;49.246;9.106;2022-09-21T00:16:24;7.00;99.90
19586;DHT22;9939;49.246;9.106;2022-09-21T00:18:52;6.90;99.90
19586;DHT22;9939;49.246;9.106;2022-09-21T00:21:19;6.80;99.90
19586;DHT22;9939;49.246;9.106;2022-09-21T00:23:47;6.80;99.90
19586;DHT22;9939;49.246;9.106;2022-09-21T00:26:17;6.90;99.90
19586;DHT22;9939;49.246;9.106;2022-09-21T00:28:44;6.90;99.90
19586;DHT22;9939;49.246;9.106;2022-09-21T00:31:14;6.80;99.90
19586;DHT22;9939;49.246;9.106;2022-09-21T00:33:41;6.70;99.90
19586;DHT22;9939;49.246;9.106;2022-09-21T00:36:14;6.60;99.90
19586;DHT22;9939;49.246;9.106;2022-09-21T00:38:44;6.60;99.90
19586;DHT22;9939;49.246;9.106;2022-09-21T00:41:12;6.50;99.90
19586;DHT22;9939;49.246;9.106;2022-09-21T00:43:48;6.60;99.90
19586;DHT22;9939;49.246;9.106;2022-09-21T00:46:26;6.50;99.90
19586;DHT22;9939;49.246;9.106;2022-09-21T00:48:54;6.50;99.90
19586;DHT22;9939;49.246;9.106;2022-09-21T00:51:22;6.40;99.90
19586;DHT22;9939;49.246;9.106;2022-09-21T00:53:59;6.40;99.90
19586;DHT22;9939;49.246;9.106;2022-09-21T00:56:28;6.40;99.90
19586;DHT22;9939;49.246;9.106;2022-09-21T00:58:56;6.50;99.90
19586;DHT22;9939;49.246;9.106;2022-09-21T01:01:23;6.50;99.90
19586;DHT22;9939;49.246;9.106;2022-09-21T01:03:51;6.30;99.90
19586;DHT22;9939;49.246;9.106;2022-09-21T01:06:19;6.10;99.90
19586;DHT22;9939;49.246;9.106;2022-09-21T01:08:52;6.30;99.90
19586;DHT22;9939;49.246;9.106;2022-09-21T01:16:44;6.20;99.90
19586;DHT22;9939;49.246;9.106;2022-09-21T01:22:52;6.10;99.90
19586;DHT22;9939;49.246;9.106;2022-09-21T01:30:58;6.00;99.90
19586;DHT22;9939;49.246;9.106;2022-09-21T01:33:30;6.10;99.90
19586;DHT22;9939;49.246;9.106;2022-09-21T01:36:23;6.00;99.90
19586;DHT22;9939;49.246;9.106;2022-09-21T01:38:56;6.00;99.90
19586;DHT22;9939;49.246;9.106;2022-09-21T01:41:27;6.00;99.90
19586;DHT22;9939;49.246;9.106;2022-09-21T01:43:59;6.10;99.90
19586;DHT22;9939;49.246;9.106;2022-09-21T01:46:31;6.00;99.90
19586;DHT22;9939;49.246;9.106;2022-09-21T01:49:04;6.00;99.90
19586;DHT22;9939;49.246;9.106;2022-09-21T01:51:35;6.00;99.90
19586;DHT22;9939;49.246;9.106;2022-09-21T01:54:11;6.00;99.90
19586;DHT22;9939;49.246;9.106;2022-09-21T01:56:46;6.00;99.90
19586;DHT22;9939;49.246;9.106;2022-09-21T01:59:48;5.90;99.90
19586;DHT22;9939;49.246;9.106;2022-09-21T02:02:21;5.90;99.90
19586;DHT22;9939;49.246;9.106;2022-09-21T02:04:49;5.90;99.90
19586;DHT22;9939;49.246;9.106;2022-09-21T02:07:17;6.00;99.90
19586;DHT22;9939;49.246;9.106;2022-09-21T02:09:45;5.90;99.90
19586;DHT22;9939;49.246;9.106;2022-09-21T02:12:13;5.90;99.90
19586;DHT22;9939;49.246;9.106;2022-09-21T02:14:45;5.90;99.90
19586;DHT22;9939;49.246;9.106;2022-09-21T02:22:42;5.80;99.90
19586;DHT22;9939;49.246;9.106;2022-09-21T02:25:15;5.70;99.90
19586;DHT22;9939;49.246;9.106;2022-09-21T02:31:00;5.70;99.90
19586;DHT22;9939;49.246;9.106;2022-09-21T02:33:39;5.60;99.90
19586;DHT22;9939;49.246;9.106;2022-09-21T02:36:11;5.60;99.90
19586;DHT22;9939;49.246;9.106;2022-09-21T02:38:48;5.70;99.90
19586;DHT22;9939;49.246;9.106;2022-09-21T02:44:03;5.80;99.90
19586;DHT22;9939;49.246;9.106;2022-09-21T02:46:53;5.70;99.90
19586;DHT22;9939;49.246;9.106;2022-09-21T02:49:24;5.50;99.90
19586;DHT22;9939;49.246;9.106;2022-09-21T02:51:58;5.50;99.90
19586;DHT22;9939;49.246;9.106;2022-09-21T02:54:29;5.60;99.90
19586;DHT22;9939;49.246;9.106;2022-09-21T02:56:57;5.40;99.90
19586;DHT22;9939;49.246;9.106;2022-09-21T02:59:26;5.50;99.90
19586;DHT22;9939;49.246;9.106;2022-09-21T03:01:54;5.50;99.90
19586;DHT22;9939;49.246;9.106;2022-09-21T03:04:25;5.60;99.90
19586;DHT22;9939;49.246;9.106;2022-09-21T03:06:53;5.50;99.90
19586;DHT22;9939;49.246;9.106;2022-09-21T03:09:22;5.60;99.90
19586;DHT22;9939;49.246;9.106;2022-09-21T03:11:50;5.60;99.90
19586;DHT22;9939;49.246;9.106;2022-09-21T03:14:17;5.50;99.90
19586;DHT22;9939;49.246;9.106;2022-09-21T03:16:45;5.50;99.90
19586;DHT22;9939;49.246;9.106;2022-09-21T03:19:12;5.50;99.90
19586;DHT22;9939;49.246;9.106;2022-09-21T03:21:39;5.50;99.90
19586;DHT22;9939;49.246;9.106;2022-09-21T03:24:10;5.40;99.90
19586;DHT22;9939;49.246;9.106;2022-09-21T03:26:37;5.40;99.90
19586;DHT22;9939;49.246;9.106;2022-09-21T03:29:04;5.30;99.90
19586;DHT22;9939;49.246;9.106;2022-09-21T03:31:31;5.40;99.90
19586;DHT22;9939;49.246;9.106;2022-09-21T03:33:59;5.30;99.90
19586;DHT22;9939;49.246;9.106;2022-09-21T03:36:26;5.30;99.90
19586;DHT22;9939;49.246;9.106;2022-09-21T03:38:54;5.30;99.90
19586;DHT22;9939;49.246;9.106;2022-09-21T03:41:21;5.20;99.90
19586;DHT22;9939;49.246;9.106;2022-09-21T03:43:48;5.30;99.90
19586;DHT22;9939;49.246;9.106;2022-09-21T03:46:15;5.30;99.90
19586;DHT22;9939;49.246;9.106;2022-09-21T03:48:43;5.30;99.90
19586;DHT22;9939;49.246;9.106;2022-09-21T03:51:13;5.20;99.90
19586;DHT22;9939;49.246;9.106;2022-09-21T03:53:40;5.20;99.90
19586;DHT22;9939;49.246;9.106;2022-09-21T03:56:07;5.20;99.90
19586;DHT22;9939;49.246;9.106;2022-09-21T03:58:34;5.30;99.90
19586;DHT22;9939;49.246;9.106;2022-09-21T04:01:02;5.20;99.90
19586;DHT22;9939;49.246;9.106;2022-09-21T04:03:29;5.10;99.90
19586;DHT22;9939;49.246;9.106;2022-09-21T04:05:56;5.20;99.90
19586;DHT22;9939;49.246;9.106;2022-09-21T04:08:23;5.40;99.90
19586;DHT22;9939;49.246;9.106;2022-09-21T04:10:50;5.40;99.90
19586;DHT22;9939;49.246;9.106;2022-09-21T04:13:17;5.50;99.90
19586;DHT22;9939;49.246;9.106;2022-09-21T04:15:44;5.40;99.90
19586;DHT22;9939;49.246;9.106;2022-09-21T04:18:11;5.30;99.90
19586;DHT22;9939;49.246;9.106;2022-09-21T04:20:39;5.20;99.90
19586;DHT22;9939;49.246;9.106;2022-09-21T04:23:07;5.20;99.90
19586;DHT22;9939;49.246;9.106;2022-09-21T04:25:34;5.00;99.90
19586;DHT22;9939;49.246;9.106;2022-09-21T04:28:02;4.90;99.90
19586;DHT22;9939;49.246;9.106;2022-09-21T04:30:28;4.90;99.90
19586;DHT22;9939;49.246;9.106;2022-09-21T04:33:02;4.80;99.90
19586;DHT22;9939;49.246;9.106;2022-09-21T04:35:29;4.80;99.90
19586;DHT22;9939;49.246;9.106;2022-09-21T04:37:56;4.70;99.90
19586;DHT22;9939;49.246;9.106;2022-09-21T04:40:23;4.70;99.90
19586;DHT22;9939;49.246;9.106;2022-09-21T04:42:54;4.60;99.90
19586;DHT22;9939;49.246;9.106;2022-09-21T04:45:22;4.60;99.90
19586;DHT22;9939;49.246;9.106;2022-09-21T04:47:49;4.60;99.90
19586;DHT22;9939;49.246;9.106;2022-09-21T04:50:16;4.70;99.90
19586;DHT22;9939;49.246;9.106;2022-09-21T04:52:45;4.60;99.90
19586;DHT22;9939;49.246;9.106;2022-09-21T04:55:13;4.70;99.90
19586;DHT22;9939;49.246;9.106;2022-09-21T04:57:40;4.70;99.90
19586;DHT22;9939;49.246;9.106;2022-09-21T05:00:08;4.70;99.90
19586;DHT22;9939;49.246;9.106;2022-09-21T05:02:35;4.80;99.90
19586;DHT22;9939;49.246;9.106;2022-09-21T05:05:02;4.80;99.90
19586;DHT22;9939;49.246;9.106;2022-09-21T05:07:29;4.90;99.90
19586;DHT22;9939;49.246;9.106;2022-09-21T05:09:56;4.90;99.90
19586;DHT22;9939;49.246;9.106;2022-09-21T05:12:33;4.90;99.90
19586;DHT22;9939;49.246;9.106;2022-09-21T05:15:05;4.90;99.90
19586;DHT22;9939;49.246;9.106;2022-09-21T05:17:32;4.90;99.90
19586;DHT22;9939;49.246;9.106;2022-09-21T05:20:00;4.90;99.90
19586;DHT22;9939;49.246;9.106;2022-09-21T05:22:27;4.90;99.90
19586;DHT22;9939;49.246;9.106;2022-09-21T05:24:54;4.90;99.90
19586;DHT22;9939;49.246;9.106;2022-09-21T05:27:21;4.90;99.90
19586;DHT22;9939;49.246;9.106;2022-09-21T05:29:48;4.90;99.90
19586;DHT22;9939;49.246;9.106;2022-09-21T05:35:17;4.90;99.90
19586;DHT22;9939;49.246;9.106;2022-09-21T05:38:00;5.00;99.90
19586;DHT22;9939;49.246;9.106;2022-09-21T05:40:30;5.00;99.90
19586;DHT22;9939;49.246;9.106;2022-09-21T05:42:57;5.10;99.90
19586;DHT22;9939;49.246;9.106;2022-09-21T05:45:25;5.20;99.90
19586;DHT22;9939;49.246;9.106;2022-09-21T05:51:00;5.30;99.90
19586;DHT22;9939;49.246;9.106;2022-09-21T05:56:43;5.10;99.90
19586;DHT22;9939;49.246;9.106;2022-09-21T06:02:20;5.20;99.90
19586;DHT22;9939;49.246;9.106;2022-09-21T06:04:49;5.20;99.90
19586;DHT22;9939;49.246;9.106;2022-09-21T06:07:19;5.30;99.90
19586;DHT22;9939;49.246;9.106;2022-09-21T06:09:46;5.40;99.90
19586;DHT22;9939;49.246;9.106;2022-09-21T06:12:13;5.50;99.90
19586;DHT22;9939;49.246;9.106;2022-09-21T06:14:40;5.70;99.90
19586;DHT22;9939;49.246;9.106;2022-09-21T06:17:07;5.70;99.90
19586;DHT22;9939;49.246;9.106;2022-09-21T06:19:34;5.70;99.90
19586;DHT22;9939;49.246;9.106;2022-09-21T06:22:01;5.90;99.90
19586;DHT22;9939;49.246;9.106;2022-09-21T06:24:28;5.90;99.90
19586;DHT22;9939;49.246;9.106;2022-09-21T06:26:55;5.90;99.90
19586;DHT22;9939;49.246;9.106;2022-09-21T06:29:22;5.90;99.90
19586;DHT22;9939;49.246;9.106;2022-09-21T06:31:50;5.90;99.90
19586;DHT22;9939;49.246;9.106;2022-09-21T06:34:17;6.00;99.90
19586;DHT22;9939;49.246;9.106;2022-09-21T06:36:44;6.10;99.90
19586;DHT22;9939;49.246;9.106;2022-09-21T06:39:11;6.60;99.90
19586;DHT22;9939;49.246;9.106;2022-09-21T06:41:38;7.00;99.90
19586;DHT22;9939;49.246;9.106;2022-09-21T06:44:09;7.00;99.90
19586;DHT22;9939;49.246;9.106;2022-09-21T06:46:36;7.10;99.90
19586;DHT22;9939;49.246;9.106;2022-09-21T06:49:03;7.20;99.90
19586;DHT22;9939;49.246;9.106;2022-09-21T06:51:30;7.70;99.90
19586;DHT22;9939;49.246;9.106;2022-09-21T06:53:57;7.70;99.90
19586;DHT22;9939;49.246;9.106;2022-09-21T06:56:25;7.70;99.90
19586;DHT22;9939;49.246;9.106;2022-09-21T06:58:52;8.00;99.90
19586;DHT22;9939;49.246;9.106;2022-09-21T07:01:19;7.90;99.90
19586;DHT22;9939;49.246;9.106;2022-09-21T07:03:51;7.70;99.90
19586;DHT22;9939;49.246;9.106;2022-09-21T07:06:18;8.00;99.90
19586;DHT22;9939;49.246;9.106;2022-09-21T07:08:47;8.10;99.90
19586;DHT22;9939;49.246;9.106;2022-09-21T07:11:34;8.00;99.90
19586;DHT22;9939;49.246;9.106;2022-09-21T07:14:01;8.20;99.90
19586;DHT22;9939;49.246;9.106;2022-09-21T07:16:30;8.60;99.90
19586;DHT22;9939;49.246;9.106;2022-09-21T07:18:56;9.10;99.90
19586;DHT22;9939;49.246;9.106;2022-09-21T07:21:36;9.40;99.90
19586;DHT22;9939;49.246;9.106;2022-09-21T07:24:03;9.20;99.90
19586;DHT22;9939;49.246;9.106;2022-09-21T07:26:37;9.00;99.90
19586;DHT22;9939;49.246;9.106;2022-09-21T07:29:04;9.10;99.90
19586;DHT22;9939;49.246;9.106;2022-09-21T07:31:31;9.30;99.90
19586;DHT22;9939;49.246;9.106;2022-09-21T07:33:57;9.60;99.90
19586;DHT22;9939;49.246;9.106;2022-09-21T07:36:24;9.60;99.90
19586;DHT22;9939;49.246;9.106;2022-09-21T07:38:51;10.20;99.90
19586;DHT22;9939;49.246;9.106;2022-09-21T07:41:19;10.90;99.90
19586;DHT22;9939;49.246;9.106;2022-09-21T07:43:46;11.10;99.90
19586;DHT22;9939;49.246;9.106;2022-09-21T07:46:13;12.10;99.90
19586;DHT22;9939;49.246;9.106;2022-09-21T07:48:40;12.60;99.90
19586;DHT22;9939;49.246;9.106;2022-09-21T07:51:10;12.60;99.90
19586;DHT22;9939;49.246;9.106;2022-09-21T07:53:39;13.30;99.90
19586;DHT22;9939;49.246;9.106;2022-09-21T07:56:10;14.10;99.90
19586;DHT22;9939;49.246;9.106;2022-09-21T07:58:37;14.30;99.90
19586;DHT22;9939;49.246;9.106;2022-09-21T08:01:23;14.30;99.90
19586;DHT22;9939;49.246;9.106;2022-09-21T08:03:51;13.90;99.90
19586;DHT22;9939;49.246;9.106;2022-09-21T08:06:18;13.90;99.90
19586;DHT22;9939;49.246;9.106;2022-09-21T08:08:46;15.20;99.90
19586;DHT22;9939;49.246;9.106;2022-09-21T08:11:14;15.40;99.90
19586;DHT22;9939;49.246;9.106;2022-09-21T08:13:42;15.90;99.90
19586;DHT22;9939;49.246;9.106;2022-09-21T08:16:09;15.90;99.90
19586;DHT22;9939;49.246;9.106;2022-09-21T08:18:36;15.70;99.90
19586;DHT22;9939;49.246;9.106;2022-09-21T08:21:04;16.50;99.90
19586;DHT22;9939;49.246;9.106;2022-09-21T08:23:31;17.40;99.90
19586;DHT22;9939;49.246;9.106;2022-09-21T08:25:59;17.70;99.90
19586;DHT22;9939;49.246;9.106;2022-09-21T08:28:27;17.10;99.90
19586;DHT22;9939;49.246;9.106;2022-09-21T08:30:57;16.70;99.90
19586;DHT22;9939;49.246;9.106;2022-09-21T08:33:24;16.60;99.90
19586;DHT22;9939;49.246;9.106;2022-09-21T08:35:56;17.60;99.90
19586;DHT22;9939;49.246;9.106;2022-09-21T08:38:23;18.40;99.90
19586;DHT22;9939;49.246;9.106;2022-09-21T08:40:51;19.50;99.90
19586;DHT22;9939;49.246;9.106;2022-09-21T08:45:57;19.70;99.90
19586;DHT22;9939;49.246;9.106;2022-09-21T08:48:27;20.10;99.90
19586;DHT22;9939;49.246;9.106;2022-09-21T08:51:05;20.50;99.90
19586;DHT22;9939;49.246;9.106;2022-09-21T08:53:36;20.60;99.90
19586;DHT22;9939;49.246;9.106;2022-09-21T08:56:04;21.10;99.90
19586;DHT22;9939;49.246;9.106;2022-09-21T08:58:31;20.80;99.90
19586;DHT22;9939;49.246;9.106;2022-09-21T09:03:53;20.00;99.90
19586;DHT22;9939;49.246;9.106;2022-09-21T09:22:33;21.80;99.90
19586;DHT22;9939;49.246;9.106;2022-09-21T09:25:04;22.10;99.90
19586;DHT22;9939;49.246;9.106;2022-09-21T09:27:40;21.60;99.90
19586;DHT22;9939;49.246;9.106;2022-09-21T09:35:29;21.50;99.90
19586;DHT22;9939;49.246;9.106;2022-09-21T09:43:40;22.90;99.90
19586;DHT22;9939;49.246;9.106;2022-09-21T09:46:36;23.00;99.90
19586;DHT22;9939;49.246;9.106;2022-09-21T09:52:03;22.80;99.90
19586;DHT22;9939;49.246;9.106;2022-09-21T09:54:33;23.50;99.90
19586;DHT22;9939;49.246;9.106;2022-09-21T09:57:03;22.50;99.90
19586;DHT22;9939;49.246;9.106;2022-09-21T10:02:26;23.30;99.90
19586;DHT22;9939;49.246;9.106;2022-09-21T10:05:02;23.20;99.90
19586;DHT22;9939;49.246;9.106;2022-09-21T10:07:39;22.90;99.90
19586;DHT22;9939;49.246;9.106;2022-09-21T10:13:12;23.70;99.90
19586;DHT22;9939;49.246;9.106;2022-09-21T10:15:43;23.90;99.90
19586;DHT22;9939;49.246;9.106;2022-09-21T10:21:33;23.70;99.90
19586;DHT22;9939;49.246;9.106;2022-09-21T10:26:53;23.20;99.90
19586;DHT22;9939;49.246;9.106;2022-09-21T10:32:05;24.30;99.90
19586;DHT22;9939;49.246;9.106;2022-09-21T10:35:13;24.70;99.90
19586;DHT22;9939;49.246;9.106;2022-09-21T10:37:45;24.50;99.90
19586;DHT22;9939;49.246;9.106;2022-09-21T10:42:44;24.00;99.90
19586;DHT22;9939;49.246;9.106;2022-09-21T10:45:21;23.50;99.90
19586;DHT22;9939;49.246;9.106;2022-09-21T10:47:58;24.10;99.90
19586;DHT22;9939;49.246;9.106;2022-09-21T11:01:48;25.90;99.90
19586;DHT22;9939;49.246;9.106;2022-09-21T11:07:32;24.80;99.50
19586;DHT22;9939;49.246;9.106;2022-09-21T11:12:45;24.50;99.90
19586;DHT22;9939;49.246;9.106;2022-09-21T11:15:33;24.70;99.90
19586;DHT22;9939;49.246;9.106;2022-09-21T11:18:18;24.30;99.90
19586;DHT22;9939;49.246;9.106;2022-09-21T11:20:55;24.40;99.90
19586;DHT22;9939;49.246;9.106;2022-09-21T11:23:48;23.60;99.90
19586;DHT22;9939;49.246;9.106;2022-09-21T11:26:23;24.70;99.90
19586;DHT22;9939;49.246;9.106;2022-09-21T11:29:10;24.20;99.90
19586;DHT22;9939;49.246;9.106;2022-09-21T11:38:04;25.90;98.80
19586;DHT22;9939;49.246;9.106;2022-09-21T11:54:00;24.60;99.40
19586;DHT22;9939;49.246;9.106;2022-09-21T12:04:36;21.80;99.90
19586;DHT22;9939;49.246;9.106;2022-09-21T12:12:35;22.40;99.90
19586;DHT22;9939;49.246;9.106;2022-09-21T12:15:16;22.50;99.90
19586;DHT22;9939;49.246;9.106;2022-09-21T12:20:53;26.50;97.70
19586;DHT22;9939;49.246;9.106;2022-09-21T12:23:35;25.00;97.20
19586;DHT22;9939;49.246;9.106;2022-09-21T12:26:05;22.90;99.90
19586;DHT22;9939;49.246;9.106;2022-09-21T12:28:45;21.50;99.90
19586;DHT22;9939;49.246;9.106;2022-09-21T12:31:23;23.20;99.90
19586;DHT22;9939;49.246;9.106;2022-09-21T12:33:56;24.90;98.40
19586;DHT22;9939;49.246;9.106;2022-09-21T12:44:41;26.70;96.30
19586;DHT22;9939;49.246;9.106;2022-09-21T12:50:20;27.80;95.30
19586;DHT22;9939;49.246;9.106;2022-09-21T12:52:49;27.10;95.50
19586;DHT22;9939;49.246;9.106;2022-09-21T13:10:29;30.20;91.10
19586;DHT22;9939;49.246;9.106;2022-09-21T13:13:00;30.20;90.90
19586;DHT22;9939;49.246;9.106;2022-09-21T13:15:39;30.10;90.30
19586;DHT22;9939;49.246;9.106;2022-09-21T13:20:44;25.90;92.50
19586;DHT22;9939;49.246;9.106;2022-09-21T13:26:02;23.00;97.50
19586;DHT22;9939;49.246;9.106;2022-09-21T13:28:59;24.70;96.90
19586;DHT22;9939;49.246;9.106;2022-09-21T13:31:54;25.50;95.60
19586;DHT22;9939;49.246;9.106;2022-09-21T13:34:24;25.30;95.60
19586;DHT22;9939;49.246;9.106;2022-09-21T13:47:41;30.50;91.00
19586;DHT22;9939;49.246;9.106;2022-09-21T13:52:54;31.10;88.10
19586;DHT22;9939;49.246;9.106;2022-09-21T13:58:01;28.50;90.20
19586;DHT22;9939;49.246;9.106;2022-09-21T14:05:46;22.60;97.10
19586;DHT22;9939;49.246;9.106;2022-09-21T14:15:53;20.90;99.90
19586;DHT22;9939;49.246;9.106;2022-09-21T14:18:35;23.30;98.80
19586;DHT22;9939;49.246;9.106;2022-09-21T14:23:37;26.00;95.50
19586;DHT22;9939;49.246;9.106;2022-09-21T14:29:14;28.80;90.70
19586;DHT22;9939;49.246;9.106;2022-09-21T14:31:42;30.60;89.40
19586;DHT22;9939;49.246;9.106;2022-09-21T14:34:14;30.20;87.70
19586;DHT22;9939;49.246;9.106;2022-09-21T14:36:45;30.90;84.80
19586;DHT22;9939;49.246;9.106;2022-09-21T14:39:23;31.00;86.20
19586;DHT22;9939;49.246;9.106;2022-09-21T14:41:54;30.30;85.90
19586;DHT22;9939;49.246;9.106;2022-09-21T14:44:26;29.00;88.60
19586;DHT22;9939;49.246;9.106;2022-09-21T14:47:04;28.90;88.60
19586;DHT22;9939;49.246;9.106;2022-09-21T14:55:25;24.60;91.50
19586;DHT22;9939;49.246;9.106;2022-09-21T15:04:30;27.40;91.60
19586;DHT22;9939;49.246;9.106;2022-09-21T15:10:20;29.40;88.40
19586;DHT22;9939;49.246;9.106;2022-09-21T15:13:19;28.50;86.50
19586;DHT22;9939;49.246;9.106;2022-09-21T15:18:24;28.20;88.80
19586;DHT22;9939;49.246;9.106;2022-09-21T15:20:59;28.00;88.80
19586;DHT22;9939;49.246;9.106;2022-09-21T15:23:37;27.40;89.00
19586;DHT22;9939;49.246;9.106;2022-09-21T15:26:14;27.20;89.40
19586;DHT22;9939;49.246;9.106;2022-09-21T15:28:46;24.60;91.30
19586;DHT22;9939;49.246;9.106;2022-09-21T15:31:38;22.40;93.90
19586;DHT22;9939;49.246;9.106;2022-09-21T15:34:05;22.10;96.10
19586;DHT22;9939;49.246;9.106;2022-09-21T15:36:37;23.90;93.90
19586;DHT22;9939;49.246;9.106;2022-09-21T15:39:05;25.20;91.90
19586;DHT22;9939;49.246;9.106;2022-09-21T15:41:36;25.00;91.60
19586;DHT22;9939;49.246;9.106;2022-09-21T15:44:10;25.40;91.30
19586;DHT22;9939;49.246;9.106;2022-09-21T15:46:38;26.70;90.60
19586;DHT22;9939;49.246;9.106;2022-09-21T15:49:14;27.10;90.00
19586;DHT22;9939;49.246;9.106;2022-09-21T15:51:41;26.50;90.40
19586;DHT22;9939;49.246;9.106;2022-09-21T15:56:50;27.40;89.90
19586;DHT22;9939;49.246;9.106;2022-09-21T15:59:18;27.00;90.70
19586;DHT22;9939;49.246;9.106;2022-09-21T16:01:47;26.90;90.10
19586;DHT22;9939;49.246;9.106;2022-09-21T16:04:20;26.40;91.00
19586;DHT22;9939;49.246;9.106;2022-09-21T16:06:58;25.90;90.90
19586;DHT22;9939;49.246;9.106;2022-09-21T16:09:27;23.40;93.40
19586;DHT22;9939;49.246;9.106;2022-09-21T16:11:56;21.20;96.00
19586;DHT22;9939;49.246;9.106;2022-09-21T16:14:23;19.80;99.00
19586;DHT22;9939;49.246;9.106;2022-09-21T16:19:41;17.70;99.90
19586;DHT22;9939;49.246;9.106;2022-09-21T16:22:18;17.30;99.90
19586;DHT22;9939;49.246;9.106;2022-09-21T16:24:52;17.10;99.90
19586;DHT22;9939;49.246;9.106;2022-09-21T16:27:23;16.70;99.90
19586;DHT22;9939;49.246;9.106;2022-09-21T16:29:52;16.50;99.90
19586;DHT22;9939;49.246;9.106;2022-09-21T16:32:30;16.50;99.90
19586;DHT22;9939;49.246;9.106;2022-09-21T16:37:43;16.10;99.90
19586;DHT22;9939;49.246;9.106;2022-09-21T16:40:10;16.00;99.90
19586;DHT22;9939;49.246;9.106;2022-09-21T16:42:40;15.80;99.90
19586;DHT22;9939;49.246;9.106;2022-09-21T16:45:17;15.60;99.90
19586;DHT22;9939;49.246;9.106;2022-09-21T16:47:49;15.60;99.90
19586;DHT22;9939;49.246;9.106;2022-09-21T16:50:17;15.50;99.90
19586;DHT22;9939;49.246;9.106;2022-09-21T16:52:45;15.40;99.90
19586;DHT22;9939;49.246;9.106;2022-09-21T16:55:15;15.30;99.90
19586;DHT22;9939;49.246;9.106;2022-09-21T16:57:42;15.30;99.90
19586;DHT22;9939;49.246;9.106;2022-09-21T17:00:10;15.10;99.90
19586;DHT22;9939;49.246;9.106;2022-09-21T17:02:38;15.10;99.90
19586;DHT22;9939;49.246;9.106;2022-09-21T17:05:08;15.00;99.90
19586;DHT22;9939;49.246;9.106;2022-09-21T17:07:35;14.80;99.90
19586;DHT22;9939;49.246;9.106;2022-09-21T17:10:14;14.60;99.90
19586;DHT22;9939;49.246;9.106;2022-09-21T17:12:42;14.50;99.90
19586;DHT22;9939;49.246;9.106;2022-09-21T17:15:11;14.30;99.90
19586;DHT22;9939;49.246;9.106;2022-09-21T17:17:38;14.20;99.90
19586;DHT22;9939;49.246;9.106;2022-09-21T17:20:22;14.10;99.90
19586;DHT22;9939;49.246;9.106;2022-09-21T17:22:52;13.80;99.90
19586;DHT22;9939;49.246;9.106;2022-09-21T17:25:19;13.60;99.90
19586;DHT22;9939;49.246;9.106;2022-09-21T17:27:46;13.40;99.90
19586;DHT22;9939;49.246;9.106;2022-09-21T17:30:13;13.40;99.90
19586;DHT22;9939;49.246;9.106;2022-09-21T17:32:41;13.30;99.90
19586;DHT22;9939;49.246;9.106;2022-09-21T17:37:43;12.90;99.90
19586;DHT22;9939;49.246;9.106;2022-09-21T17:40:11;12.70;99.90
19586;DHT22;9939;49.246;9.106;2022-09-21T17:42:41;12.60;99.90
19586;DHT22;9939;49.246;9.106;2022-09-21T17:47:40;12.40;99.90
19586;DHT22;9939;49.246;9.106;2022-09-21T17:52:41;12.10;99.90
19586;DHT22;9939;49.246;9.106;2022-09-21T17:55:27;11.90;99.90
19586;DHT22;9939;49.246;9.106;2022-09-21T18:03:52;11.60;99.90
19586;DHT22;9939;49.246;9.106;2022-09-21T18:06:19;11.50;99.90
19586;DHT22;9939;49.246;9.106;2022-09-21T18:08:48;11.40;99.90
19586;DHT22;9939;49.246;9.106;2022-09-21T18:25:34;11.30;99.90
19586;DHT22;9939;49.246;9.106;2022-09-21T18:28:10;11.20;99.90
19586;DHT22;9939;49.246;9.106;2022-09-21T18:30:44;11.10;99.90
19586;DHT22;9939;49.246;9.106;2022-09-21T18:41:43;10.70;99.90
19586;DHT22;9939;49.246;9.106;2022-09-21T18:49:47;10.50;99.90
19586;DHT22;9939;49.246;9.106;2022-09-21T18:52:41;10.40;99.90
19586;DHT22;9939;49.246;9.106;2022-09-21T18:55:25;10.50;99.90
19586;DHT22;9939;49.246;9.106;2022-09-21T18:57:57;10.50;99.90
19586;DHT22;9939;49.246;9.106;2022-09-21T19:00:26;10.50;99.90
19586;DHT22;9939;49.246;9.106;2022-09-21T19:02:58;10.20;99.90
19586;DHT22;9939;49.246;9.106;2022-09-21T19:08:50;10.30;99.90
19586;DHT22;9939;49.246;9.106;2022-09-21T19:11:53;10.10;99.90
19586;DHT22;9939;49.246;9.106;2022-09-21T19:14:35;9.90;99.90
19586;DHT22;9939;49.246;9.106;2022-09-21T19:25:03;9.80;99.90
19586;DHT22;9939;49.246;9.106;2022-09-21T19:27:53;9.70;99.90
19586;DHT22;9939;49.246;9.106;2022-09-21T19:30:24;9.70;99.90
19586;DHT22;9939;49.246;9.106;2022-09-21T19:32:54;9.60;99.90
19586;DHT22;9939;49.246;9.106;2022-09-21T19:35:29;9.50;99.90
19586;DHT22;9939;49.246;9.106;2022-09-21T19:37:58;9.70;99.90
19586;DHT22;9939;49.246;9.106;2022-09-21T19:40:37;9.40;99.90
19586;DHT22;9939;49.246;9.106;2022-09-21T19:43:28;9.40;99.90
19586;DHT22;9939;49.246;9.106;2022-09-21T19:46:28;9.40;99.90
19586;DHT22;9939;49.246;9.106;2022-09-21T19:49:11;9.30;99.90
19586;DHT22;9939;49.246;9.106;2022-09-21T19:51:45;9.40;99.90
19586;DHT22;9939;49.246;9.106;2022-09-21T19:54:16;9.20;99.90
19586;DHT22;9939;49.246;9.106;2022-09-21T19:57:14;9.10;99.90
19586;DHT22;9939;49.246;9.106;2022-09-21T20:00:00;9.20;99.90
19586;DHT22;9939;49.246;9.106;2022-09-21T20:02:33;9.10;99.90
19586;DHT22;9939;49.246;9.106;2022-09-21T20:07:53;8.90;99.90
19586;DHT22;9939;49.246;9.106;2022-09-21T20:13:18;8.90;99.90
19586;DHT22;9939;49.246;9.106;2022-09-21T20:15:51;8.80;99.90
19586;DHT22;9939;49.246;9.106;2022-09-21T20:18:39;8.70;99.90
19586;DHT22;9939;49.246;9.106;2022-09-21T20:21:12;8.60;99.90
19586;DHT22;9939;49.246;9.106;2022-09-21T20:23:41;8.50;99.90
19586;DHT22;9939;49.246;9.106;2022-09-21T20:26:26;8.50;99.90
19586;DHT22;9939;49.246;9.106;2022-09-21T20:28:54;8.60;99.90
19586;DHT22;9939;49.246;9.106;2022-09-21T20:31:23;8.60;99.90
19586;DHT22;9939;49.246;9.106;2022-09-21T20:33:50;8.50;99.90
19586;DHT22;9939;49.246;9.106;2022-09-21T20:36:17;8.60;99.90
19586;DHT22;9939;49.246;9.106;2022-09-21T20:38:44;8.60;99.90
19586;DHT22;9939;49.246;9.106;2022-09-21T20:41:13;8.50;99.90
19586;DHT22;9939;49.246;9.106;2022-09-21T20:43:41;8.50;99.90
19586;DHT22;9939;49.246;9.106;2022-09-21T20:46:09;8.40;99.90
19586;DHT22;9939;49.246;9.106;2022-09-21T20:48:36;8.40;99.90
19586;DHT22;9939;49.246;9.106;2022-09-21T20:51:04;8.40;99.90
19586;DHT22;9939;49.246;9.106;2022-09-21T20:53:33;8.40;99.90
19586;DHT22;9939;49.246;9.106;2022-09-21T20:56:00;8.40;99.90
19586;DHT22;9939;49.246;9.106;2022-09-21T20:58:28;8.30;99.90
19586;DHT22;9939;49.246;9.106;2022-09-21T21:01:02;8.30;99.90
19586;DHT22;9939;49.246;9.106;2022-09-21T21:03:29;8.30;99.90
19586;DHT22;9939;49.246;9.106;2022-09-21T21:06:14;8.30;99.90
19586;DHT22;9939;49.246;9.106;2022-09-21T21:08:44;8.20;99.90
19586;DHT22;9939;49.246;9.106;2022-09-21T21:11:11;8.20;99.90
19586;DHT22;9939;49.246;9.106;2022-09-21T21:13:40;8.10;99.90
19586;DHT22;9939;49.246;9.106;2022-09-21T21:16:07;8.20;99.90
19586;DHT22;9939;49.246;9.106;2022-09-21T21:18:39;8.20;99.90
19586;DHT22;9939;49.246;9.106;2022-09-21T21:21:06;8.30;99.90